sensor_id;sensor_type;location;lat;lon;timestamp;pressure;altitude;pressure_sealevel;temperature;humidity
62038;BME280;47991;42.974;12.082;2023-04-07T00:02:31;97874.34;;;2.98;50.97
62038;BME280;47991;42.974;12.082;2023-04-07T00:05:18;97874.83;;;2.88;51.36
62038;BME280;47991;42.974;12.082;2023-04-07T00:08:16;97877.13;;;2.98;51.03
62038;BME280;47991;42.974;12.082;2023-04-07T00:18:11;97878.04;;;2.65;51.62
62038;BME280;47991;42.974;12.082;2023-04-07T00:21:24;97877.30;;;2.57;51.64
62038;BME280;47991;42.974;12.082;2023-04-07T00:24:01;97876.45;;;2.60;51.59
62038;BME280;47991;42.974;12.082;2023-04-07T00:30:30;97871.44;;;2.38;52.95
62038;BME280;47991;42.974;12.082;2023-04-07T00:37:39;97869.05;;;2.17;52.76
62038;BME280;47991;42.974;12.082;2023-04-07T00:40:30;97865.95;;;2.24;52.38
62038;BME280;47991;42.974;12.082;2023-04-07T00:42:56;97867.88;;;2.24;53.04
62038;BME280;47991;42.974;12.082;2023-04-07T00:45:57;97871.02;;;2.24;51.78
62038;BME280;47991;42.974;12.082;2023-04-07T00:52:39;97872.55;;;2.16;52.56
62038;BME280;47991;42.974;12.082;2023-04-07T00:56:15;97873.23;;;1.92;53.66
62038;BME280;47991;42.974;12.082;2023-04-07T00:59:59;97872.75;;;1.74;53.64
62038;BME280;47991;42.974;12.082;2023-04-07T01:06:14;97874.31;;;1.54;54.71
62038;BME280;47991;42.974;12.082;2023-04-07T01:09:38;97869.77;;;1.51;53.98
62038;BME280;47991;42.974;12.082;2023-04-07T01:15:40;97868.05;;;1.35;54.65
62038;BME280;47991;42.974;12.082;2023-04-07T01:23:09;97863.63;;;1.13;55.83
62038;BME280;47991;42.974;12.082;2023-04-07T01:26:25;97865.16;;;1.10;55.65
62038;BME280;47991;42.974;12.082;2023-04-07T01:32:49;97860.79;;;1.24;55.05
62038;BME280;47991;42.974;12.082;2023-04-07T01:35:43;97860.88;;;1.16;56.19
62038;BME280;47991;42.974;12.082;2023-04-07T01:38:35;97857.38;;;1.15;54.79
62038;BME280;47991;42.974;12.082;2023-04-07T01:41:33;97855.49;;;1.01;55.17
62038;BME280;47991;42.974;12.082;2023-04-07T01:45:07;97856.15;;;0.97;56.24
62038;BME280;47991;42.974;12.082;2023-04-07T01:48:25;97859.05;;;0.91;56.36
62038;BME280;47991;42.974;12.082;2023-04-07T01:51:40;97860.54;;;0.85;55.50
62038;BME280;47991;42.974;12.082;2023-04-07T01:54:47;97853.97;;;0.89;55.15
62038;BME280;47991;42.974;12.082;2023-04-07T01:57:45;97856.55;;;0.85;56.55
62038;BME280;47991;42.974;12.082;2023-04-07T02:05:08;97858.15;;;0.74;56.93
62038;BME280;47991;42.974;12.082;2023-04-07T02:08:34;97859.44;;;0.65;58.66
62038;BME280;47991;42.974;12.082;2023-04-07T02:18:00;97857.57;;;0.68;56.54
62038;BME280;47991;42.974;12.082;2023-04-07T02:20:44;97864.38;;;0.71;56.76
62038;BME280;47991;42.974;12.082;2023-04-07T02:23:59;97864.85;;;0.66;56.93
62038;BME280;47991;42.974;12.082;2023-04-07T02:26:53;97868.25;;;0.61;56.60
62038;BME280;47991;42.974;12.082;2023-04-07T02:30:01;97869.21;;;0.54;57.32
62038;BME280;47991;42.974;12.082;2023-04-07T02:33:35;97866.38;;;0.50;57.46
62038;BME280;47991;42.974;12.082;2023-04-07T02:36:26;97864.45;;;0.49;57.69
62038;BME280;47991;42.974;12.082;2023-04-07T02:39:56;97868.14;;;0.52;57.39
62038;BME280;47991;42.974;12.082;2023-04-07T02:43:10;97863.70;;;0.58;56.58
62038;BME280;47991;42.974;12.082;2023-04-07T02:47:09;97863.85;;;0.57;57.98
62038;BME280;47991;42.974;12.082;2023-04-07T02:50:09;97864.00;;;0.54;58.40
62038;BME280;47991;42.974;12.082;2023-04-07T02:53:16;97864.27;;;0.47;57.57
62038;BME280;47991;42.974;12.082;2023-04-07T02:56:16;97865.16;;;0.37;57.32
62038;BME280;47991;42.974;12.082;2023-04-07T02:59:05;97864.73;;;0.30;57.74
62038;BME280;47991;42.974;12.082;2023-04-07T03:05:39;97863.02;;;0.07;58.38
62038;BME280;47991;42.974;12.082;2023-04-07T03:08:44;97861.42;;;0.06;59.22
62038;BME280;47991;42.974;12.082;2023-04-07T03:12:03;97859.16;;;0.05;58.62
62038;BME280;47991;42.974;12.082;2023-04-07T03:15:36;97861.34;;;-0.00;58.26
62038;BME280;47991;42.974;12.082;2023-04-07T03:23:16;97867.34;;;-0.16;58.77
62038;BME280;47991;42.974;12.082;2023-04-07T03:25:47;97869.33;;;-0.22;58.69
62038;BME280;47991;42.974;12.082;2023-04-07T03:28:18;97866.84;;;-0.26;60.25
62038;BME280;47991;42.974;12.082;2023-04-07T03:37:38;97856.19;;;-0.19;60.34
62038;BME280;47991;42.974;12.082;2023-04-07T03:43:17;97848.17;;;-0.21;61.25
62038;BME280;47991;42.974;12.082;2023-04-07T03:45:59;97845.73;;;-0.10;59.90
62038;BME280;47991;42.974;12.082;2023-04-07T03:48:41;97843.71;;;0.06;58.92
62038;BME280;47991;42.974;12.082;2023-04-07T03:51:36;97845.44;;;0.19;58.63
62038;BME280;47991;42.974;12.082;2023-04-07T03:55:07;97846.16;;;0.08;59.60
62038;BME280;47991;42.974;12.082;2023-04-07T03:58:00;97852.56;;;-0.06;60.23
62038;BME280;47991;42.974;12.082;2023-04-07T04:00:44;97853.77;;;-0.07;59.51
62038;BME280;47991;42.974;12.082;2023-04-07T04:03:30;97855.85;;;-0.08;60.32
62038;BME280;47991;42.974;12.082;2023-04-07T04:06:32;97854.33;;;-0.15;60.45
62038;BME280;47991;42.974;12.082;2023-04-07T04:09:17;97853.92;;;-0.19;60.30
62038;BME280;47991;42.974;12.082;2023-04-07T04:12:21;97847.93;;;-0.25;59.84
62038;BME280;47991;42.974;12.082;2023-04-07T04:15:09;97850.20;;;-0.25;59.57
62038;BME280;47991;42.974;12.082;2023-04-07T04:18:05;97846.66;;;-0.17;59.48
62038;BME280;47991;42.974;12.082;2023-04-07T04:24:11;97849.15;;;-0.13;59.41
62038;BME280;47991;42.974;12.082;2023-04-07T04:27:14;97852.89;;;-0.18;59.10
62038;BME280;47991;42.974;12.082;2023-04-07T04:30:09;97854.41;;;-0.10;58.71
62038;BME280;47991;42.974;12.082;2023-04-07T04:33:18;97855.41;;;-0.02;59.04
62038;BME280;47991;42.974;12.082;2023-04-07T04:39:46;97857.82;;;-0.15;59.35
62038;BME280;47991;42.974;12.082;2023-04-07T04:42:38;97865.64;;;-0.25;60.04
62038;BME280;47991;42.974;12.082;2023-04-07T04:45:24;97864.48;;;-0.32;61.27
62038;BME280;47991;42.974;12.082;2023-04-07T04:48:18;97867.99;;;-0.41;61.21
62038;BME280;47991;42.974;12.082;2023-04-07T04:50:56;97869.20;;;-0.41;59.90
62038;BME280;47991;42.974;12.082;2023-04-07T04:53:34;97870.12;;;-0.38;60.22
62038;BME280;47991;42.974;12.082;2023-04-07T04:59:45;97874.45;;;-0.39;60.17
62038;BME280;47991;42.974;12.082;2023-04-07T05:02:54;97873.15;;;-0.33;60.07
62038;BME280;47991;42.974;12.082;2023-04-07T05:05:57;97873.16;;;-0.33;60.34
62038;BME280;47991;42.974;12.082;2023-04-07T05:08:36;97878.73;;;-0.32;60.81
62038;BME280;47991;42.974;12.082;2023-04-07T05:11:19;97877.52;;;-0.10;60.37
62038;BME280;47991;42.974;12.082;2023-04-07T05:14:17;97869.48;;;0.92;59.56
62038;BME280;47991;42.974;12.082;2023-04-07T05:16:53;97862.06;;;2.18;57.32
62038;BME280;47991;42.974;12.082;2023-04-07T05:19:32;97856.94;;;3.25;56.00
62038;BME280;47991;42.974;12.082;2023-04-07T05:22:45;97853.45;;;4.21;53.95
62038;BME280;47991;42.974;12.082;2023-04-07T05:25:36;97846.60;;;4.90;52.68
62038;BME280;47991;42.974;12.082;2023-04-07T05:28:15;97852.06;;;5.71;50.89
62038;BME280;47991;42.974;12.082;2023-04-07T05:33:57;97856.23;;;7.40;46.92
62038;BME280;47991;42.974;12.082;2023-04-07T05:36:39;97855.41;;;8.05;45.90
62038;BME280;47991;42.974;12.082;2023-04-07T05:39:51;97854.71;;;8.55;46.17
62038;BME280;47991;42.974;12.082;2023-04-07T05:46:47;97849.70;;;10.53;43.57
62038;BME280;47991;42.974;12.082;2023-04-07T05:49:37;97849.77;;;11.21;41.50
62038;BME280;47991;42.974;12.082;2023-04-07T05:52:14;97843.46;;;11.93;40.20
62038;BME280;47991;42.974;12.082;2023-04-07T05:54:42;97846.07;;;12.43;39.94
62038;BME280;47991;42.974;12.082;2023-04-07T05:57:13;97843.29;;;12.91;39.73
62038;BME280;47991;42.974;12.082;2023-04-07T05:59:46;97842.79;;;13.39;38.10
62038;BME280;47991;42.974;12.082;2023-04-07T06:02:12;97838.64;;;14.12;38.50
62038;BME280;47991;42.974;12.082;2023-04-07T06:04:39;97837.15;;;14.97;36.17
62038;BME280;47991;42.974;12.082;2023-04-07T06:07:10;97841.64;;;15.66;32.96
62038;BME280;47991;42.974;12.082;2023-04-07T06:09:52;97834.31;;;16.25;32.16
62038;BME280;47991;42.974;12.082;2023-04-07T06:13:09;97832.73;;;16.94;31.01
62038;BME280;47991;42.974;12.082;2023-04-07T06:16:06;97834.61;;;17.59;29.78
62038;BME280;47991;42.974;12.082;2023-04-07T06:19:13;97836.00;;;17.69;30.09
62038;BME280;47991;42.974;12.082;2023-04-07T06:22:05;97835.28;;;18.14;28.51
62038;BME280;47991;42.974;12.082;2023-04-07T06:24:35;97832.13;;;18.86;31.01
62038;BME280;47991;42.974;12.082;2023-04-07T06:27:04;97834.41;;;19.07;28.63
62038;BME280;47991;42.974;12.082;2023-04-07T06:29:36;97833.45;;;18.94;27.91
62038;BME280;47991;42.974;12.082;2023-04-07T06:32:22;97831.21;;;18.80;27.35
62038;BME280;47991;42.974;12.082;2023-04-07T06:35:17;97833.66;;;17.69;27.50
62038;BME280;47991;42.974;12.082;2023-04-07T06:37:45;97831.45;;;17.01;32.48
62038;BME280;47991;42.974;12.082;2023-04-07T06:40:14;97834.19;;;17.11;33.75
62038;BME280;47991;42.974;12.082;2023-04-07T06:42:41;97832.65;;;18.01;31.03
62038;BME280;47991;42.974;12.082;2023-04-07T06:45:22;97830.63;;;18.14;30.60
62038;BME280;47991;42.974;12.082;2023-04-07T06:47:52;97832.89;;;19.17;28.94
62038;BME280;47991;42.974;12.082;2023-04-07T06:50:20;97832.52;;;20.32;28.36
62038;BME280;47991;42.974;12.082;2023-04-07T06:52:49;97831.69;;;21.46;28.02
62038;BME280;47991;42.974;12.082;2023-04-07T06:55:38;97830.66;;;20.75;24.82
62038;BME280;47991;42.974;12.082;2023-04-07T06:58:04;97841.77;;;19.29;26.77
62038;BME280;47991;42.974;12.082;2023-04-07T07:00:43;97842.09;;;19.65;27.46
62038;BME280;47991;42.974;12.082;2023-04-07T07:03:34;97841.42;;;20.09;26.57
62038;BME280;47991;42.974;12.082;2023-04-07T07:06:45;97835.79;;;20.69;26.45
62038;BME280;47991;42.974;12.082;2023-04-07T07:09:39;97844.23;;;19.45;27.33
62038;BME280;47991;42.974;12.082;2023-04-07T07:16:17;97843.08;;;18.15;29.02
62038;BME280;47991;42.974;12.082;2023-04-07T07:22:59;97848.45;;;15.89;31.16
62038;BME280;47991;42.974;12.082;2023-04-07T07:25:44;97854.78;;;14.29;33.85
62038;BME280;47991;42.974;12.082;2023-04-07T07:28:39;97859.34;;;13.56;35.15
62038;BME280;47991;42.974;12.082;2023-04-07T07:31:18;97865.42;;;12.04;38.48
62038;BME280;47991;42.974;12.082;2023-04-07T07:34:09;97864.97;;;11.80;38.94
62038;BME280;47991;42.974;12.082;2023-04-07T07:37:11;97862.64;;;11.63;39.60
62038;BME280;47991;42.974;12.082;2023-04-07T07:40:31;97856.16;;;11.20;41.05
62038;BME280;47991;42.974;12.082;2023-04-07T07:43:53;97855.39;;;11.74;39.16
62038;BME280;47991;42.974;12.082;2023-04-07T07:47:25;97850.70;;;12.11;36.83
62038;BME280;47991;42.974;12.082;2023-04-07T07:50:33;97858.09;;;11.79;37.42
62038;BME280;47991;42.974;12.082;2023-04-07T07:54:10;97853.61;;;12.03;37.83
62038;BME280;47991;42.974;12.082;2023-04-07T07:57:33;97846.78;;;12.11;37.08
62038;BME280;47991;42.974;12.082;2023-04-07T08:05:07;97841.16;;;12.05;37.72
62038;BME280;47991;42.974;12.082;2023-04-07T08:07:47;97842.61;;;11.76;39.12
62038;BME280;47991;42.974;12.082;2023-04-07T08:10:36;97840.74;;;12.01;37.44
62038;BME280;47991;42.974;12.082;2023-04-07T08:17:32;97840.31;;;11.35;40.93
62038;BME280;47991;42.974;12.082;2023-04-07T08:21:26;97837.66;;;11.11;40.96
62038;BME280;47991;42.974;12.082;2023-04-07T08:29:18;97833.91;;;11.00;41.67
62038;BME280;47991;42.974;12.082;2023-04-07T08:35:45;97827.17;;;11.54;39.06
62038;BME280;47991;42.974;12.082;2023-04-07T08:38:12;97824.95;;;11.85;38.28
62038;BME280;47991;42.974;12.082;2023-04-07T08:44:29;97819.38;;;12.09;38.21
62038;BME280;47991;42.974;12.082;2023-04-07T08:50:52;97802.84;;;12.52;36.54
62038;BME280;47991;42.974;12.082;2023-04-07T08:54:09;97803.23;;;12.67;36.43
62038;BME280;47991;42.974;12.082;2023-04-07T08:57:23;97801.12;;;12.60;37.08
62038;BME280;47991;42.974;12.082;2023-04-07T09:00:18;97795.72;;;12.87;36.72
62038;BME280;47991;42.974;12.082;2023-04-07T09:03:03;97788.45;;;12.97;35.40
62038;BME280;47991;42.974;12.082;2023-04-07T09:05:50;97783.95;;;12.89;35.37
62038;BME280;47991;42.974;12.082;2023-04-07T09:08:51;97784.99;;;12.94;35.61
62038;BME280;47991;42.974;12.082;2023-04-07T09:12:24;97782.42;;;13.01;34.30
62038;BME280;47991;42.974;12.082;2023-04-07T09:15:17;97776.36;;;13.35;34.81
62038;BME280;47991;42.974;12.082;2023-04-07T09:18:29;97771.83;;;13.51;33.73
62038;BME280;47991;42.974;12.082;2023-04-07T09:21:49;97771.59;;;13.39;33.42
62038;BME280;47991;42.974;12.082;2023-04-07T09:24:42;97762.14;;;13.40;33.62
62038;BME280;47991;42.974;12.082;2023-04-07T09:28:19;97759.89;;;13.78;32.75
62038;BME280;47991;42.974;12.082;2023-04-07T09:31:11;97749.71;;;14.13;32.34
62038;BME280;47991;42.974;12.082;2023-04-07T09:35:04;97750.06;;;14.58;32.28
62038;BME280;47991;42.974;12.082;2023-04-07T09:37:34;97741.67;;;14.87;32.50
62038;BME280;47991;42.974;12.082;2023-04-07T09:40:44;97737.64;;;15.01;30.72
62038;BME280;47991;42.974;12.082;2023-04-07T09:48:16;97736.73;;;15.01;31.85
62038;BME280;47991;42.974;12.082;2023-04-07T10:11:03;97725.45;;;16.06;26.81
62038;BME280;47991;42.974;12.082;2023-04-07T10:14:08;97724.61;;;15.90;26.76
62038;BME280;47991;42.974;12.082;2023-04-07T10:17:07;97718.98;;;16.06;25.72
62038;BME280;47991;42.974;12.082;2023-04-07T10:20:07;97714.58;;;15.62;25.25
62038;BME280;47991;42.974;12.082;2023-04-07T10:26:44;97693.57;;;16.45;25.57
62038;BME280;47991;42.974;12.082;2023-04-07T10:30:01;97691.68;;;16.84;26.02
62038;BME280;47991;42.974;12.082;2023-04-07T10:36:23;97692.41;;;16.51;25.61
62038;BME280;47991;42.974;12.082;2023-04-07T10:39:20;97686.24;;;16.52;24.52
62038;BME280;47991;42.974;12.082;2023-04-07T10:41:56;97680.82;;;16.50;24.76
62038;BME280;47991;42.974;12.082;2023-04-07T10:45:02;97680.40;;;16.88;24.39
62038;BME280;47991;42.974;12.082;2023-04-07T11:03:15;97676.31;;;16.34;25.32
62038;BME280;47991;42.974;12.082;2023-04-07T11:06:55;97674.08;;;16.46;24.86
62038;BME280;47991;42.974;12.082;2023-04-07T11:25:25;97661.08;;;16.19;25.42
62038;BME280;47991;42.974;12.082;2023-04-07T11:28:22;97660.70;;;16.12;25.53
62038;BME280;47991;42.974;12.082;2023-04-07T11:40:12;97643.15;;;16.00;26.54
62038;BME280;47991;42.974;12.082;2023-04-07T11:43:44;97639.81;;;16.10;26.62
62038;BME280;47991;42.974;12.082;2023-04-07T11:48:27;97633.00;;;16.40;26.85
62038;BME280;47991;42.974;12.082;2023-04-07T12:02:54;97620.83;;;16.31;26.10
62038;BME280;47991;42.974;12.082;2023-04-07T12:10:21;97613.88;;;16.11;26.69
62038;BME280;47991;42.974;12.082;2023-04-07T12:17:19;97610.73;;;16.30;26.44
62038;BME280;47991;42.974;12.082;2023-04-07T12:23:56;97592.40;;;16.22;26.87
62038;BME280;47991;42.974;12.082;2023-04-07T12:27:15;97585.96;;;16.52;26.77
62038;BME280;47991;42.974;12.082;2023-04-07T12:30:08;97583.61;;;16.20;26.06
62038;BME280;47991;42.974;12.082;2023-04-07T12:33:26;97576.97;;;16.31;25.72
62038;BME280;47991;42.974;12.082;2023-04-07T12:36:17;97573.33;;;16.35;26.60
62038;BME280;47991;42.974;12.082;2023-04-07T12:39:34;97571.66;;;16.56;26.64
62038;BME280;47991;42.974;12.082;2023-04-07T12:43:03;97565.05;;;16.98;26.23
62038;BME280;47991;42.974;12.082;2023-04-07T12:45:48;97568.18;;;16.35;27.20
62038;BME280;47991;42.974;12.082;2023-04-07T12:48:21;97556.01;;;16.39;26.85
62038;BME280;47991;42.974;12.082;2023-04-07T12:51:02;97555.98;;;16.75;26.67
62038;BME280;47991;42.974;12.082;2023-04-07T12:53:42;97560.30;;;16.80;25.30
62038;BME280;47991;42.974;12.082;2023-04-07T12:56:15;97549.11;;;16.76;25.79
62038;BME280;47991;42.974;12.082;2023-04-07T12:58:47;97549.08;;;17.21;25.78
62038;BME280;47991;42.974;12.082;2023-04-07T13:01:35;97553.40;;;17.35;25.44
62038;BME280;47991;42.974;12.082;2023-04-07T13:04:05;97546.66;;;17.19;25.45
62038;BME280;47991;42.974;12.082;2023-04-07T13:10:41;97547.79;;;17.27;25.85
62038;BME280;47991;42.974;12.082;2023-04-07T13:13:56;97553.23;;;16.66;26.13
62038;BME280;47991;42.974;12.082;2023-04-07T13:17:13;97550.54;;;16.34;26.29
62038;BME280;47991;42.974;12.082;2023-04-07T13:19:59;97533.48;;;17.12;26.05
62038;BME280;47991;42.974;12.082;2023-04-07T13:22:33;97534.87;;;17.73;25.94
62038;BME280;47991;42.974;12.082;2023-04-07T13:25:12;97520.77;;;17.94;25.13
62038;BME280;47991;42.974;12.082;2023-04-07T13:27:39;97523.92;;;18.03;25.45
62038;BME280;47991;42.974;12.082;2023-04-07T13:30:12;97522.62;;;17.86;25.79
62038;BME280;47991;42.974;12.082;2023-04-07T13:33:12;97531.40;;;17.23;26.10
62038;BME280;47991;42.974;12.082;2023-04-07T13:36:17;97532.30;;;16.77;26.53
62038;BME280;47991;42.974;12.082;2023-04-07T13:39:10;97540.33;;;16.55;26.73
62038;BME280;47991;42.974;12.082;2023-04-07T13:42:13;97540.23;;;15.77;27.79
62038;BME280;47991;42.974;12.082;2023-04-07T13:45:11;97526.34;;;15.88;27.90
62038;BME280;47991;42.974;12.082;2023-04-07T13:52:35;97522.50;;;15.79;28.19
62038;BME280;47991;42.974;12.082;2023-04-07T13:55:33;97520.40;;;16.12;28.65
62038;BME280;47991;42.974;12.082;2023-04-07T13:58:23;97520.81;;;15.84;28.95
62038;BME280;47991;42.974;12.082;2023-04-07T14:01:09;97516.84;;;15.61;29.28
62038;BME280;47991;42.974;12.082;2023-04-07T14:04:04;97520.47;;;15.97;29.55
62038;BME280;47991;42.974;12.082;2023-04-07T14:06:48;97514.23;;;16.00;29.02
62038;BME280;47991;42.974;12.082;2023-04-07T14:09:26;97509.68;;;15.79;29.07
62038;BME280;47991;42.974;12.082;2023-04-07T14:12:46;97511.03;;;15.35;29.49
62038;BME280;47991;42.974;12.082;2023-04-07T14:15:44;97507.84;;;15.18;29.70
62038;BME280;47991;42.974;12.082;2023-04-07T14:19:14;97513.46;;;15.19;30.04
62038;BME280;47991;42.974;12.082;2023-04-07T14:22:10;97508.91;;;15.04;30.34
62038;BME280;47991;42.974;12.082;2023-04-07T14:25:27;97508.13;;;15.02;30.71
62038;BME280;47991;42.974;12.082;2023-04-07T14:32:27;97506.29;;;14.81;31.11
62038;BME280;47991;42.974;12.082;2023-04-07T14:35:36;97500.16;;;14.86;31.15
62038;BME280;47991;42.974;12.082;2023-04-07T14:41:57;97497.63;;;15.09;30.84
62038;BME280;47991;42.974;12.082;2023-04-07T14:48:53;97492.30;;;15.05;30.81
62038;BME280;47991;42.974;12.082;2023-04-07T14:59:41;97485.77;;;15.11;30.12
62038;BME280;47991;42.974;12.082;2023-04-07T15:03:13;97476.58;;;15.30;29.71
62038;BME280;47991;42.974;12.082;2023-04-07T15:09:57;97485.25;;;15.62;29.70
62038;BME280;47991;42.974;12.082;2023-04-07T15:29:07;97468.34;;;15.82;29.35
62038;BME280;47991;42.974;12.082;2023-04-07T15:39:41;97463.25;;;15.40;31.14
62038;BME280;47991;42.974;12.082;2023-04-07T15:43:18;97470.14;;;15.44;31.81
62038;BME280;47991;42.974;12.082;2023-04-07T15:46:05;97471.84;;;15.15;32.66
62038;BME280;47991;42.974;12.082;2023-04-07T15:49:42;97471.23;;;15.03;32.90
62038;BME280;47991;42.974;12.082;2023-04-07T15:52:56;97468.33;;;14.93;33.39
62038;BME280;47991;42.974;12.082;2023-04-07T15:56:30;97468.36;;;14.92;33.50
62038;BME280;47991;42.974;12.082;2023-04-07T16:03:23;97470.58;;;14.91;33.56
62038;BME280;47991;42.974;12.082;2023-04-07T16:06:09;97462.29;;;14.92;34.11
62038;BME280;47991;42.974;12.082;2023-04-07T16:08:42;97460.84;;;15.00;34.24
62038;BME280;47991;42.974;12.082;2023-04-07T16:11:14;97459.13;;;15.06;34.17
62038;BME280;47991;42.974;12.082;2023-04-07T16:13:46;97460.77;;;15.05;34.58
62038;BME280;47991;42.974;12.082;2023-04-07T16:16:16;97461.08;;;15.13;34.60
62038;BME280;47991;42.974;12.082;2023-04-07T16:23:26;97463.61;;;15.02;36.06
62038;BME280;47991;42.974;12.082;2023-04-07T16:26:30;97460.33;;;14.79;37.07
62038;BME280;47991;42.974;12.082;2023-04-07T16:29:24;97453.91;;;14.72;37.35
62038;BME280;47991;42.974;12.082;2023-04-07T16:32:12;97452.71;;;14.59;38.53
62038;BME280;47991;42.974;12.082;2023-04-07T16:34:45;97455.71;;;14.45;39.04
62038;BME280;47991;42.974;12.082;2023-04-07T16:37:45;97456.30;;;14.48;38.67
62038;BME280;47991;42.974;12.082;2023-04-07T16:44:45;97455.14;;;14.28;39.36
62038;BME280;47991;42.974;12.082;2023-04-07T16:47:57;97460.83;;;14.24;39.59
62038;BME280;47991;42.974;12.082;2023-04-07T16:50:29;97455.70;;;14.16;39.78
62038;BME280;47991;42.974;12.082;2023-04-07T16:52:56;97460.04;;;14.00;40.70
62038;BME280;47991;42.974;12.082;2023-04-07T16:55:37;97458.02;;;13.89;41.20
62038;BME280;47991;42.974;12.082;2023-04-07T16:58:16;97463.61;;;13.76;41.16
62038;BME280;47991;42.974;12.082;2023-04-07T17:00:53;97465.56;;;13.68;41.23
62038;BME280;47991;42.974;12.082;2023-04-07T17:03:27;97473.13;;;13.50;41.93
62038;BME280;47991;42.974;12.082;2023-04-07T17:06:08;97471.75;;;13.45;41.70
62038;BME280;47991;42.974;12.082;2023-04-07T17:08:46;97472.80;;;13.38;41.76
62038;BME280;47991;42.974;12.082;2023-04-07T17:11:59;97470.14;;;13.21;42.48
62038;BME280;47991;42.974;12.082;2023-04-07T17:14:31;97478.31;;;13.08;43.67
62038;BME280;47991;42.974;12.082;2023-04-07T17:17:08;97480.59;;;12.92;43.95
62038;BME280;47991;42.974;12.082;2023-04-07T17:19:56;97487.15;;;12.80;44.24
62038;BME280;47991;42.974;12.082;2023-04-07T17:22:27;97485.44;;;12.69;44.21
62038;BME280;47991;42.974;12.082;2023-04-07T17:25:10;97491.80;;;12.57;44.35
62038;BME280;47991;42.974;12.082;2023-04-07T17:28:12;97495.78;;;12.42;45.13
62038;BME280;47991;42.974;12.082;2023-04-07T17:30:43;97499.29;;;12.38;45.23
62038;BME280;47991;42.974;12.082;2023-04-07T17:33:17;97502.55;;;12.27;45.83
62038;BME280;47991;42.974;12.082;2023-04-07T17:35:49;97503.34;;;12.16;46.31
62038;BME280;47991;42.974;12.082;2023-04-07T17:38:20;97509.22;;;12.11;46.32
62038;BME280;47991;42.974;12.082;2023-04-07T17:40:58;97514.55;;;11.97;47.01
62038;BME280;47991;42.974;12.082;2023-04-07T17:43:34;97518.51;;;11.90;47.46
62038;BME280;47991;42.974;12.082;2023-04-07T17:46:25;97519.93;;;11.85;47.41
62038;BME280;47991;42.974;12.082;2023-04-07T17:48:59;97520.07;;;11.81;47.46
62038;BME280;47991;42.974;12.082;2023-04-07T17:51:37;97515.66;;;11.75;48.29
62038;BME280;47991;42.974;12.082;2023-04-07T17:54:23;97522.17;;;11.67;48.36
62038;BME280;47991;42.974;12.082;2023-04-07T17:57:01;97532.52;;;11.65;48.47
62038;BME280;47991;42.974;12.082;2023-04-07T17:59:35;97536.48;;;11.53;49.09
62038;BME280;47991;42.974;12.082;2023-04-07T18:02:14;97539.64;;;11.49;49.66
62038;BME280;47991;42.974;12.082;2023-04-07T18:05:16;97551.45;;;11.46;49.58
62038;BME280;47991;42.974;12.082;2023-04-07T18:11:20;97566.55;;;11.34;50.81
62038;BME280;47991;42.974;12.082;2023-04-07T18:14:38;97569.97;;;11.33;49.86
62038;BME280;47991;42.974;12.082;2023-04-07T18:17:06;97569.28;;;11.21;50.91
62038;BME280;47991;42.974;12.082;2023-04-07T18:19:33;97571.05;;;11.16;50.64
62038;BME280;47991;42.974;12.082;2023-04-07T18:22:12;97572.27;;;11.11;51.00
62038;BME280;47991;42.974;12.082;2023-04-07T18:25:23;97577.16;;;11.03;50.98
62038;BME280;47991;42.974;12.082;2023-04-07T18:27:53;97582.71;;;10.95;51.51
62038;BME280;47991;42.974;12.082;2023-04-07T18:30:57;97586.44;;;10.90;50.97
62038;BME280;47991;42.974;12.082;2023-04-07T18:33:24;97589.09;;;10.89;50.82
62038;BME280;47991;42.974;12.082;2023-04-07T18:36:01;97590.93;;;10.87;51.15
62038;BME280;47991;42.974;12.082;2023-04-07T18:39:21;97588.98;;;10.76;51.95
62038;BME280;47991;42.974;12.082;2023-04-07T18:42:02;97591.10;;;10.76;51.93
62038;BME280;47991;42.974;12.082;2023-04-07T18:44:37;97588.66;;;10.75;51.74
62038;BME280;47991;42.974;12.082;2023-04-07T18:47:20;97591.15;;;10.75;51.32
62038;BME280;47991;42.974;12.082;2023-04-07T18:50:53;97587.48;;;10.73;52.03
62038;BME280;47991;42.974;12.082;2023-04-07T18:54:45;97589.23;;;10.74;51.77
62038;BME280;47991;42.974;12.082;2023-04-07T18:57:58;97591.95;;;10.72;51.87
62038;BME280;47991;42.974;12.082;2023-04-07T19:01:00;97596.42;;;10.70;52.29
62038;BME280;47991;42.974;12.082;2023-04-07T19:03:34;97595.13;;;10.66;52.94
62038;BME280;47991;42.974;12.082;2023-04-07T19:06:29;97599.05;;;10.65;52.96
62038;BME280;47991;42.974;12.082;2023-04-07T19:09:12;97601.48;;;10.61;53.44
62038;BME280;47991;42.974;12.082;2023-04-07T19:12:06;97606.29;;;10.60;53.69
62038;BME280;47991;42.974;12.082;2023-04-07T19:15:03;97610.77;;;10.53;54.06
62038;BME280;47991;42.974;12.082;2023-04-07T19:18:24;97602.97;;;10.47;54.41
62038;BME280;47991;42.974;12.082;2023-04-07T19:20:55;97603.90;;;10.40;55.16
62038;BME280;47991;42.974;12.082;2023-04-07T19:23:37;97608.09;;;10.35;56.20
62038;BME280;47991;42.974;12.082;2023-04-07T19:26:15;97606.27;;;10.30;56.83
62038;BME280;47991;42.974;12.082;2023-04-07T19:28:57;97606.58;;;10.26;57.46
62038;BME280;47991;42.974;12.082;2023-04-07T19:31:40;97611.37;;;10.19;57.55
62038;BME280;47991;42.974;12.082;2023-04-07T19:34:16;97613.70;;;10.12;57.87
62038;BME280;47991;42.974;12.082;2023-04-07T19:37:46;97609.64;;;10.05;58.54
62038;BME280;47991;42.974;12.082;2023-04-07T19:41:19;97613.86;;;10.00;58.76
62038;BME280;47991;42.974;12.082;2023-04-07T19:53:03;97604.50;;;9.87;60.81
62038;BME280;47991;42.974;12.082;2023-04-07T19:55:54;97609.31;;;9.86;61.93
62038;BME280;47991;42.974;12.082;2023-04-07T19:58:57;97610.30;;;9.82;63.32
62038;BME280;47991;42.974;12.082;2023-04-07T20:02:14;97605.99;;;9.84;63.97
62038;BME280;47991;42.974;12.082;2023-04-07T20:05:37;97600.67;;;9.86;64.23